Terminal Aerodrome Forecast
Issued by NWS

Home | Current Version | Previous Version | Text Only | Print | Product List | Glossary On
Versions: 1 2 3 4 5 6 7 8 9 10 11 12 13 14
000
FTUS46 KMTR 222347 AAA
TAFSJC
TAF AMD
KSJC 222347Z 2300/2324 30012KT P6SM FEW040 SCT120 SCT160
     FM230400 30006KT P6SM FEW040 SCT200
     FM230700 VRB04KT P6SM SCT200
     FM230900 16004KT P6SM SCT200
     FM231600 VRB03KT P6SM FEW015 FEW200
     FM232100 30009KT P6SM FEW200=

USA.gov is the U.S. government's official web portal to all federal, state and local government web resources and services.